createdAt,value
2023-04-08T00:00:00.034Z,1001.93
2023-04-08T00:00:10.297Z,1001.94
2023-04-08T00:00:20.576Z,1001.94
2023-04-08T00:00:30.874Z,1001.94
2023-04-08T00:00:41.143Z,1001.94
2023-04-08T00:00:51.423Z,1001.94
2023-04-08T00:01:01.678Z,1001.94
2023-04-08T00:01:11.946Z,1001.94
2023-04-08T00:01:22.288Z,1001.94
2023-04-08T00:01:32.582Z,1001.94
2023-04-08T00:01:42.984Z,1001.95
2023-04-08T00:01:53.302Z,1001.95
2023-04-08T00:02:03.680Z,1001.95
2023-04-08T00:02:14.503Z,1001.95
2023-04-08T00:02:24.384Z,1001.95
2023-04-08T00:02:34.863Z,1001.94
2023-04-08T00:02:45.129Z,1001.94
2023-04-08T00:02:55.329Z,1001.94
2023-04-08T00:03:05.914Z,1001.94
2023-04-08T00:03:15.930Z,1001.94
2023-04-08T00:03:26.197Z,1001.94
2023-04-08T00:03:36.531Z,1001.94
2023-04-08T00:03:46.886Z,1001.94
2023-04-08T00:03:57.063Z,1001.94
2023-04-08T00:04:07.361Z,1001.94
2023-04-08T00:04:17.494Z,1001.94
2023-04-08T00:04:28.002Z,1001.94
2023-04-08T00:04:38.199Z,1001.93
2023-04-08T00:04:48.465Z,1001.93
2023-04-08T00:04:58.838Z,1001.94
2023-04-08T00:05:09.095Z,1001.94
2023-04-08T00:05:19.371Z,1001.94
2023-04-08T00:05:29.732Z,1001.94
2023-04-08T00:05:39.961Z,1001.94
2023-04-08T00:05:50.231Z,1001.94
2023-04-08T00:06:00.498Z,1001.95
2023-04-08T00:06:10.774Z,1001.95
2023-04-08T00:06:21.037Z,1001.95
2023-04-08T00:06:31.311Z,1001.95
2023-04-08T00:06:41.623Z,1001.95
2023-04-08T00:06:51.847Z,1001.95
2023-04-08T00:07:02.116Z,1001.95
2023-04-08T00:07:12.387Z,1001.95
2023-04-08T00:07:22.648Z,1001.95
2023-04-08T00:07:32.916Z,1001.94
2023-04-08T00:07:43.196Z,1001.95
2023-04-08T00:07:53.454Z,1001.94
2023-04-08T00:08:03.720Z,1001.94
2023-04-08T00:08:13.991Z,1001.94
2023-04-08T00:08:24.219Z,1001.94
2023-04-08T00:08:34.482Z,1001.94
2023-04-08T00:08:44.748Z,1001.95
2023-04-08T00:08:55.020Z,1001.94
2023-04-08T00:09:05.296Z,1001.94
2023-04-08T00:09:15.555Z,1001.94
2023-04-08T00:09:25.829Z,1001.94
2023-04-08T00:09:36.227Z,1001.94
2023-04-08T00:09:46.608Z,1001.94
2023-04-08T00:09:56.851Z,1001.94
2023-04-08T00:10:07.120Z,1001.95
2023-04-08T00:10:17.392Z,1001.94
2023-04-08T00:10:27.657Z,1001.95
2023-04-08T00:10:37.924Z,1001.95
2023-04-08T00:10:48.193Z,1001.95
2023-04-08T00:10:58.470Z,1001.95
2023-04-08T00:11:08.739Z,1001.95
2023-04-08T00:11:18.998Z,1001.96
2023-04-08T00:11:29.266Z,1001.96
2023-04-08T00:11:39.534Z,1001.96
2023-04-08T00:11:49.803Z,1001.96
2023-04-08T00:12:00.093Z,1001.97
2023-04-08T00:12:10.349Z,1001.97
2023-04-08T00:12:20.620Z,1001.97
2023-04-08T00:12:30.906Z,1001.97
2023-04-08T00:12:41.157Z,1001.98
2023-04-08T00:12:51.491Z,1001.98
2023-04-08T00:13:01.740Z,1001.98
2023-04-08T00:13:12.012Z,1001.98
2023-04-08T00:13:22.280Z,1001.99
2023-04-08T00:13:32.553Z,1001.99
2023-04-08T00:13:42.816Z,1001.99
2023-04-08T00:13:53.082Z,1001.99
2023-04-08T00:14:03.354Z,1001.99
2023-04-08T00:14:13.635Z,1002.00
2023-04-08T00:14:23.896Z,1002.00
2023-04-08T00:14:34.181Z,1001.99
2023-04-08T00:14:44.444Z,1001.99
2023-04-08T00:14:54.715Z,1002.00
2023-04-08T00:15:04.988Z,1002.00
2023-04-08T00:15:15.260Z,1002.00
2023-04-08T00:15:25.528Z,1002.00
2023-04-08T00:15:35.795Z,1001.99
2023-04-08T00:15:46.067Z,1001.99
2023-04-08T00:15:56.333Z,1001.99
2023-04-08T00:16:06.604Z,1001.99
2023-04-08T00:16:16.922Z,1002.00
2023-04-08T00:16:27.182Z,1002.00
2023-04-08T00:16:37.492Z,1002.00
2023-04-08T00:16:47.783Z,1001.99
2023-04-08T00:16:58.060Z,1002.00
2023-04-08T00:17:08.371Z,1002.00
2023-04-08T00:17:18.666Z,1002.00
2023-04-08T00:17:28.934Z,1002.00
2023-04-08T00:17:39.186Z,1002.00
2023-04-08T00:17:49.474Z,1002.00
2023-04-08T00:17:59.797Z,1002.00
2023-04-08T00:18:10.095Z,1002.00
2023-04-08T00:18:20.357Z,1001.99
2023-04-08T00:18:30.628Z,1001.99
2023-04-08T00:18:40.892Z,1001.99
2023-04-08T00:18:51.362Z,1001.99
2023-04-08T00:19:01.478Z,1001.99
2023-04-08T00:19:11.734Z,1001.99
2023-04-08T00:19:22.003Z,1001.99
2023-04-08T00:19:33.148Z,1002.00
2023-04-08T00:19:42.617Z,1001.99
2023-04-08T00:19:52.886Z,1001.99
2023-04-08T00:20:03.153Z,1001.99
2023-04-08T00:20:13.429Z,1001.99
2023-04-08T00:20:23.695Z,1001.99
2023-04-08T00:20:33.953Z,1001.98
2023-04-08T00:20:44.231Z,1001.99
2023-04-08T00:20:54.490Z,1001.99
2023-04-08T00:21:04.761Z,1001.98
2023-04-08T00:21:15.033Z,1001.98
2023-04-08T00:21:25.310Z,1001.99
2023-04-08T00:21:35.564Z,1001.99
2023-04-08T00:21:45.833Z,1001.99
2023-04-08T00:21:56.101Z,1001.98
2023-04-08T00:22:06.373Z,1001.99
2023-04-08T00:22:16.641Z,1001.99
2023-04-08T00:22:26.911Z,1002.00
2023-04-08T00:22:37.176Z,1001.99
2023-04-08T00:22:47.446Z,1002.00
2023-04-08T00:22:57.730Z,1002.00
2023-04-08T00:23:07.988Z,1002.00
2023-04-08T00:23:18.261Z,1002.00
2023-04-08T00:23:28.523Z,1002.00
2023-04-08T00:23:38.797Z,1002.00
2023-04-08T00:23:49.077Z,1002.00
2023-04-08T00:23:59.337Z,1002.01
2023-04-08T00:24:09.598Z,1002.01
2023-04-08T00:24:19.871Z,1002.01
2023-04-08T00:24:30.136Z,1002.01
2023-04-08T00:24:40.414Z,1002.01
2023-04-08T00:24:50.691Z,1002.01
2023-04-08T00:25:00.952Z,1002.01
2023-04-08T00:25:11.222Z,1002.01
2023-04-08T00:25:23.415Z,1002.01
2023-04-08T00:25:31.863Z,1002.01
2023-04-08T00:25:42.128Z,1002.01
2023-04-08T00:25:52.400Z,1002.01
2023-04-08T00:26:02.667Z,1002.01
2023-04-08T00:26:12.933Z,1002.00
2023-04-08T00:26:23.228Z,1002.01
2023-04-08T00:26:33.481Z,1002.01
2023-04-08T00:26:43.823Z,1002.01
2023-04-08T00:26:54.067Z,1002.00
2023-04-08T00:27:04.374Z,1002.00
2023-04-08T00:27:14.638Z,1002.00
2023-04-08T00:27:24.904Z,1002.00
2023-04-08T00:27:35.175Z,1002.00
2023-04-08T00:27:45.441Z,1002.00
2023-04-08T00:27:55.715Z,1002.00
2023-04-08T00:28:05.977Z,1002.00
2023-04-08T00:28:16.246Z,1001.99
2023-04-08T00:28:26.513Z,1002.00
2023-04-08T00:28:36.784Z,1001.99
2023-04-08T00:28:47.128Z,1001.99
2023-04-08T00:28:57.368Z,1001.99
2023-04-08T00:29:07.628Z,1001.99
2023-04-08T00:29:17.897Z,1001.99
2023-04-08T00:29:28.168Z,1001.99
2023-04-08T00:29:38.477Z,1001.99
2023-04-08T00:29:48.738Z,1001.99
2023-04-08T00:29:59.003Z,1001.99
2023-04-08T00:30:09.273Z,1002.00
2023-04-08T00:30:19.544Z,1002.00
2023-04-08T00:30:29.946Z,1002.00
2023-04-08T00:30:40.118Z,1002.00
2023-04-08T00:30:50.403Z,1001.99
2023-04-08T00:31:00.706Z,1002.00
2023-04-08T00:31:11.013Z,1002.00
2023-04-08T00:31:21.527Z,1002.00
2023-04-08T00:31:31.711Z,1002.00
2023-04-08T00:31:41.981Z,1002.00
2023-04-08T00:31:52.251Z,1002.01
2023-04-08T00:32:02.514Z,1002.00
2023-04-08T00:32:12.783Z,1002.00
2023-04-08T00:32:23.117Z,1002.00
2023-04-08T00:32:33.344Z,1002.00
2023-04-08T00:32:43.617Z,1002.00
2023-04-08T00:32:53.925Z,1002.00
2023-04-08T00:33:04.248Z,1002.00
2023-04-08T00:33:14.679Z,1002.00
2023-04-08T00:33:24.936Z,1002.00
2023-04-08T00:33:35.190Z,1002.01
2023-04-08T00:33:45.453Z,1002.01
2023-04-08T00:33:55.720Z,1002.01
2023-04-08T00:34:05.989Z,1002.01
2023-04-08T00:34:16.258Z,1002.01
2023-04-08T00:34:26.522Z,1002.01
2023-04-08T00:34:36.792Z,1002.01
2023-04-08T00:34:47.096Z,1002.01
2023-04-08T00:34:57.368Z,1002.01
2023-04-08T00:35:07.644Z,1002.01
2023-04-08T00:35:17.972Z,1002.01
2023-04-08T00:35:28.293Z,1002.01
2023-04-08T00:35:38.679Z,1002.01
2023-04-08T00:35:49.027Z,1002.01
2023-04-08T00:35:59.290Z,1002.01
2023-04-08T00:36:09.552Z,1002.01
2023-04-08T00:36:19.817Z,1002.02
2023-04-08T00:36:30.088Z,1002.02
2023-04-08T00:36:40.356Z,1002.02
2023-04-08T00:36:50.622Z,1002.02
2023-04-08T00:37:00.892Z,1002.02
2023-04-08T00:37:11.155Z,1002.02
2023-04-08T00:37:21.439Z,1002.02
2023-04-08T00:37:31.697Z,1002.02
2023-04-08T00:37:41.964Z,1002.02
2023-04-08T00:37:52.228Z,1002.02
2023-04-08T00:38:02.535Z,1002.02
2023-04-08T00:38:12.782Z,1002.03
2023-04-08T00:38:23.049Z,1002.02
2023-04-08T00:38:33.315Z,1002.03
2023-04-08T00:38:43.586Z,1002.03
2023-04-08T00:38:53.852Z,1002.03
2023-04-08T00:39:04.121Z,1002.03
2023-04-08T00:39:14.399Z,1002.03
2023-04-08T00:39:24.667Z,1002.03
2023-04-08T00:39:34.927Z,1002.03
2023-04-08T00:39:45.198Z,1002.04
2023-04-08T00:39:55.460Z,1002.04
2023-04-08T00:40:05.735Z,1002.04
2023-04-08T00:40:16.000Z,1002.04
2023-04-08T00:40:26.316Z,1002.04
2023-04-08T00:40:36.574Z,1002.04
2023-04-08T00:40:46.840Z,1002.04
2023-04-08T00:40:57.116Z,1002.05
2023-04-08T00:41:07.392Z,1002.04
2023-04-08T00:41:17.657Z,1002.05
2023-04-08T00:41:27.947Z,1002.05
2023-04-08T00:41:38.190Z,1002.05
2023-04-08T00:41:48.459Z,1002.05
2023-04-08T00:41:58.739Z,1002.05
2023-04-08T00:42:09.004Z,1002.05
2023-04-08T00:42:19.273Z,1002.05
2023-04-08T00:42:29.546Z,1002.05
2023-04-08T00:42:39.811Z,1002.05
2023-04-08T00:42:50.078Z,1002.05
2023-04-08T00:43:00.347Z,1002.05
2023-04-08T00:43:10.624Z,1002.05
2023-04-08T00:43:20.882Z,1002.05
2023-04-08T00:43:31.149Z,1002.05
2023-04-08T00:43:41.420Z,1002.05
2023-04-08T00:43:51.685Z,1002.05
2023-04-08T00:44:01.953Z,1002.05
2023-04-08T00:44:12.217Z,1002.05
2023-04-08T00:44:22.489Z,1002.05
2023-04-08T00:44:32.756Z,1002.06
2023-04-08T00:44:43.045Z,1002.06
2023-04-08T00:44:53.312Z,1002.06
2023-04-08T00:45:03.574Z,1002.06
2023-04-08T00:45:13.838Z,1002.05
2023-04-08T00:45:24.121Z,1002.06
2023-04-08T00:45:34.379Z,1002.05
2023-04-08T00:45:44.648Z,1002.05
2023-04-08T00:45:54.949Z,1002.05
2023-04-08T00:46:05.218Z,1002.05
2023-04-08T00:46:15.512Z,1002.05
2023-04-08T00:46:25.805Z,1002.05
2023-04-08T00:46:36.138Z,1002.05
2023-04-08T00:46:46.452Z,1002.05
2023-04-08T00:46:56.728Z,1002.05
2023-04-08T00:47:06.984Z,1002.05
2023-04-08T00:47:17.248Z,1002.05
2023-04-08T00:47:27.559Z,1002.05
2023-04-08T00:47:37.910Z,1002.05
2023-04-08T00:47:48.200Z,1002.05
2023-04-08T00:47:58.466Z,1002.05
2023-04-08T00:48:08.732Z,1002.05
2023-04-08T00:48:18.999Z,1002.05
2023-04-08T00:48:29.268Z,1002.05
2023-04-08T00:48:39.537Z,1002.05
2023-04-08T00:48:50.024Z,1002.05
2023-04-08T00:49:00.107Z,1002.05
2023-04-08T00:49:10.341Z,1002.05
2023-04-08T00:49:20.609Z,1002.05
2023-04-08T00:49:30.875Z,1002.06
2023-04-08T00:49:41.143Z,1002.06
2023-04-08T00:49:51.433Z,1002.06
2023-04-08T00:50:01.701Z,1002.06
2023-04-08T00:50:11.970Z,1002.06
2023-04-08T00:50:22.240Z,1002.06
2023-04-08T00:50:32.505Z,1002.06
2023-04-08T00:50:42.775Z,1002.07
2023-04-08T00:50:53.042Z,1002.07
2023-04-08T00:51:03.316Z,1002.07
2023-04-08T00:51:13.583Z,1002.07
2023-04-08T00:51:23.854Z,1002.07
2023-04-08T00:51:34.117Z,1002.07
2023-04-08T00:51:44.381Z,1002.07
2023-04-08T00:51:54.653Z,1002.08
2023-04-08T00:52:04.923Z,1002.08
2023-04-08T00:52:15.190Z,1002.08
2023-04-08T00:52:25.460Z,1002.08
2023-04-08T00:52:35.726Z,1002.08
2023-04-08T00:52:45.994Z,1002.08
2023-04-08T00:52:56.268Z,1002.09
2023-04-08T00:53:06.538Z,1002.09
2023-04-08T00:53:16.814Z,1002.09
2023-04-08T00:53:27.072Z,1002.09
2023-04-08T00:53:37.333Z,1002.09
2023-04-08T00:53:47.655Z,1002.09
2023-04-08T00:53:57.921Z,1002.09
2023-04-08T00:54:08.189Z,1002.09
2023-04-08T00:54:18.457Z,1002.09
2023-04-08T00:54:28.728Z,1002.09
2023-04-08T00:54:38.994Z,1002.09
2023-04-08T00:54:49.264Z,1002.09
2023-04-08T00:54:59.541Z,1002.10
2023-04-08T00:55:09.813Z,1002.09
2023-04-08T00:55:20.081Z,1002.10
2023-04-08T00:55:30.349Z,1002.10
2023-04-08T00:55:40.616Z,1002.09
2023-04-08T00:55:50.907Z,1002.10
2023-04-08T00:56:01.175Z,1002.09
2023-04-08T00:56:11.448Z,1002.10
2023-04-08T00:56:21.772Z,1002.10
2023-04-08T00:56:32.019Z,1002.10
2023-04-08T00:56:42.286Z,1002.11
2023-04-08T00:56:52.557Z,1002.10
2023-04-08T00:57:02.823Z,1002.10
2023-04-08T00:57:13.094Z,1002.11
2023-04-08T00:57:23.356Z,1002.11
2023-04-08T00:57:33.639Z,1002.10
2023-04-08T00:57:43.891Z,1002.11
2023-04-08T00:57:54.164Z,1002.11
2023-04-08T00:58:04.429Z,1002.11
2023-04-08T00:58:14.700Z,1002.10
2023-04-08T00:58:24.965Z,1002.11
2023-04-08T00:58:35.237Z,1002.11
2023-04-08T00:58:45.501Z,1002.10
2023-04-08T00:58:55.775Z,1002.10
2023-04-08T00:59:06.040Z,1002.11
2023-04-08T00:59:16.308Z,1002.11
2023-04-08T00:59:26.583Z,1002.10
2023-04-08T00:59:36.863Z,1002.10
2023-04-08T00:59:47.116Z,1002.11
2023-04-08T00:59:57.383Z,1002.10
2023-04-08T01:00:07.690Z,1002.11
2023-04-08T01:00:17.947Z,1002.11
2023-04-08T01:00:28.214Z,1002.10
2023-04-08T01:00:38.556Z,1002.11
2023-04-08T01:00:48.843Z,1002.11
2023-04-08T01:00:59.102Z,1002.10
2023-04-08T01:01:09.438Z,1002.11
2023-04-08T01:01:19.769Z,1002.11
2023-04-08T01:01:30.232Z,1002.11
2023-04-08T01:01:40.446Z,1002.11
2023-04-08T01:01:50.825Z,1002.11
2023-04-08T01:02:00.977Z,1002.11
2023-04-08T01:02:11.392Z,1002.11
2023-04-08T01:02:21.664Z,1002.11
2023-04-08T01:02:32.176Z,1002.11
2023-04-08T01:02:42.372Z,1002.11
2023-04-08T01:02:52.805Z,1002.11
2023-04-08T01:03:03.033Z,1002.12
2023-04-08T01:03:13.249Z,1002.11
2023-04-08T01:03:23.673Z,1002.11
2023-04-08T01:03:33.871Z,1002.11
2023-04-08T01:03:44.172Z,1002.11
2023-04-08T01:03:54.632Z,1002.12
2023-04-08T01:04:04.990Z,1002.12
2023-04-08T01:04:15.462Z,1002.12
2023-04-08T01:04:25.645Z,1002.12
2023-04-08T01:04:35.918Z,1002.11
2023-04-08T01:04:46.188Z,1002.11
2023-04-08T01:04:56.460Z,1002.11
2023-04-08T01:05:06.763Z,1002.11
2023-04-08T01:05:17.020Z,1002.11
2023-04-08T01:05:27.296Z,1002.11
2023-04-08T01:05:37.558Z,1002.10
2023-04-08T01:05:47.828Z,1002.10
2023-04-08T01:05:58.095Z,1002.10
2023-04-08T01:06:08.366Z,1002.11
2023-04-08T01:06:18.633Z,1002.10
2023-04-08T01:06:28.903Z,1002.10
2023-04-08T01:06:39.170Z,1002.10
2023-04-08T01:06:49.440Z,1002.10
2023-04-08T01:06:59.723Z,1002.10
2023-04-08T01:07:09.992Z,1002.09
2023-04-08T01:07:20.250Z,1002.09
2023-04-08T01:07:30.515Z,1002.09
2023-04-08T01:07:40.786Z,1002.09
2023-04-08T01:07:51.050Z,1002.08
2023-04-08T01:08:01.322Z,1002.09
2023-04-08T01:08:11.588Z,1002.09
2023-04-08T01:08:21.859Z,1002.09
2023-04-08T01:08:32.127Z,1002.08
2023-04-08T01:08:42.404Z,1002.08
2023-04-08T01:08:52.670Z,1002.09
2023-04-08T01:09:02.934Z,1002.09
2023-04-08T01:09:13.200Z,1002.08
2023-04-08T01:09:23.475Z,1002.08
2023-04-08T01:09:33.751Z,1002.08
2023-04-08T01:09:44.031Z,1002.08
2023-04-08T01:09:54.323Z,1002.08
2023-04-08T01:10:04.632Z,1002.08
2023-04-08T01:10:14.911Z,1002.08
2023-04-08T01:10:25.173Z,1002.08
2023-04-08T01:10:35.446Z,1002.08
2023-04-08T01:10:45.720Z,1002.08
2023-04-08T01:10:56.000Z,1002.09
2023-04-08T01:11:06.259Z,1002.08
2023-04-08T01:11:16.529Z,1002.08
2023-04-08T01:11:26.815Z,1002.08
2023-04-08T01:11:37.065Z,1002.08
2023-04-08T01:11:47.361Z,1002.08
2023-04-08T01:11:57.613Z,1002.08
2023-04-08T01:12:07.889Z,1002.08
2023-04-08T01:12:18.157Z,1002.08
2023-04-08T01:12:28.426Z,1002.08
2023-04-08T01:12:38.692Z,1002.08
2023-04-08T01:12:48.995Z,1002.08
2023-04-08T01:12:59.258Z,1002.09
2023-04-08T01:13:09.527Z,1002.08
2023-04-08T01:13:19.798Z,1002.08
2023-04-08T01:13:30.147Z,1002.09
2023-04-08T01:13:40.363Z,1002.08
2023-04-08T01:13:50.633Z,1002.08
2023-04-08T01:14:00.916Z,1002.08
2023-04-08T01:14:11.178Z,1002.08
2023-04-08T01:14:21.447Z,1002.08
2023-04-08T01:14:31.705Z,1002.08
2023-04-08T01:14:41.990Z,1002.08
2023-04-08T01:14:52.257Z,1002.07
2023-04-08T01:15:02.523Z,1002.07
2023-04-08T01:15:12.810Z,1002.07
2023-04-08T01:15:23.076Z,1002.07
2023-04-08T01:15:33.353Z,1002.07
2023-04-08T01:15:43.617Z,1002.07
2023-04-08T01:15:53.891Z,1002.06
2023-04-08T01:16:04.241Z,1002.07
2023-04-08T01:16:14.548Z,1002.07
2023-04-08T01:16:24.850Z,1002.06
2023-04-08T01:16:35.101Z,1002.06
2023-04-08T01:16:45.365Z,1002.06
2023-04-08T01:16:55.653Z,1002.06
2023-04-08T01:17:05.915Z,1002.06
2023-04-08T01:17:16.170Z,1002.06
2023-04-08T01:17:26.472Z,1002.06
2023-04-08T01:17:36.781Z,1002.06
2023-04-08T01:17:47.021Z,1002.06
2023-04-08T01:17:57.285Z,1002.05
2023-04-08T01:18:07.547Z,1002.05
2023-04-08T01:18:17.821Z,1002.05
2023-04-08T01:18:28.077Z,1002.05
2023-04-08T01:18:38.347Z,1002.05
2023-04-08T01:18:48.796Z,1002.05
2023-04-08T01:18:58.973Z,1002.05
2023-04-08T01:19:09.242Z,1002.05
2023-04-08T01:19:19.507Z,1002.06
2023-04-08T01:19:29.773Z,1002.05
2023-04-08T01:19:40.070Z,1002.05
2023-04-08T01:19:50.334Z,1002.05
2023-04-08T01:20:00.608Z,1002.05
2023-04-08T01:20:10.867Z,1002.05
2023-04-08T01:20:21.133Z,1002.05
2023-04-08T01:20:31.415Z,1002.05
2023-04-08T01:20:41.687Z,1002.05
2023-04-08T01:20:51.941Z,1002.05
2023-04-08T01:21:02.207Z,1002.05
2023-04-08T01:21:12.492Z,1002.05
2023-04-08T01:21:22.762Z,1002.05
2023-04-08T01:21:33.038Z,1002.05
2023-04-08T01:21:43.316Z,1002.04
2023-04-08T01:21:53.582Z,1002.04
2023-04-08T01:22:03.843Z,1002.05
2023-04-08T01:22:14.114Z,1002.04
2023-04-08T01:22:24.381Z,1002.04
2023-04-08T01:22:34.649Z,1002.04
2023-04-08T01:22:44.913Z,1002.04
2023-04-08T01:22:55.175Z,1002.05
2023-04-08T01:23:05.444Z,1002.04
2023-04-08T01:23:15.714Z,1002.04
2023-04-08T01:23:26.018Z,1002.04
2023-04-08T01:23:36.248Z,1002.04
2023-04-08T01:23:46.520Z,1002.04
2023-04-08T01:23:56.788Z,1002.04
2023-04-08T01:24:07.060Z,1002.04
2023-04-08T01:24:17.349Z,1002.04
2023-04-08T01:24:27.621Z,1002.04
2023-04-08T01:24:37.905Z,1002.04
2023-04-08T01:24:48.175Z,1002.04
2023-04-08T01:24:58.448Z,1002.04
2023-04-08T01:25:08.717Z,1002.04
2023-04-08T01:25:18.987Z,1002.04
2023-04-08T01:25:29.245Z,1002.04
2023-04-08T01:25:39.513Z,1002.03
2023-04-08T01:25:49.783Z,1002.03
2023-04-08T01:26:00.081Z,1002.04
2023-04-08T01:26:10.369Z,1002.04
2023-04-08T01:26:20.642Z,1002.03
2023-04-08T01:26:30.950Z,1002.03
2023-04-08T01:26:41.207Z,1002.03
2023-04-08T01:26:51.490Z,1002.03
2023-04-08T01:27:01.754Z,1002.03
2023-04-08T01:27:12.016Z,1002.03
2023-04-08T01:27:22.292Z,1002.03
2023-04-08T01:27:32.556Z,1002.03
2023-04-08T01:27:42.824Z,1002.03
2023-04-08T01:27:53.091Z,1002.03
2023-04-08T01:28:03.359Z,1002.03
2023-04-08T01:28:13.635Z,1002.03
2023-04-08T01:28:23.893Z,1002.03
2023-04-08T01:28:34.221Z,1002.03
2023-04-08T01:28:44.498Z,1002.03
2023-04-08T01:28:54.760Z,1002.03
2023-04-08T01:29:05.027Z,1002.04
2023-04-08T01:29:18.021Z,1002.04
2023-04-08T01:29:25.705Z,1002.04
2023-04-08T01:29:35.969Z,1002.04
2023-04-08T01:29:46.236Z,1002.04
2023-04-08T01:29:56.501Z,1002.04
2023-04-08T01:30:06.795Z,1002.05
2023-04-08T01:30:27.482Z,1002.06
2023-04-08T01:30:37.746Z,1002.06
2023-04-08T01:30:48.064Z,1002.06
2023-04-08T01:30:58.343Z,1002.06
2023-04-08T01:31:08.634Z,1002.06
2023-04-08T01:31:18.974Z,1002.07
2023-04-08T01:31:29.274Z,1002.07
2023-04-08T01:31:39.616Z,1002.08
2023-04-08T01:31:49.904Z,1002.07
2023-04-08T01:32:00.172Z,1002.08
2023-04-08T01:32:10.450Z,1002.08
2023-04-08T01:32:20.771Z,1002.08
2023-04-08T01:32:31.117Z,1002.08
2023-04-08T01:32:41.422Z,1002.08
2023-04-08T01:32:51.722Z,1002.09
2023-04-08T01:33:01.985Z,1002.09
2023-04-08T01:33:12.230Z,1002.09
2023-04-08T01:33:22.501Z,1002.09
2023-04-08T01:33:32.765Z,1002.09
2023-04-08T01:33:43.026Z,1002.09
2023-04-08T01:33:53.330Z,1002.09
2023-04-08T01:34:03.586Z,1002.09
2023-04-08T01:34:13.856Z,1002.09
2023-04-08T01:34:24.119Z,1002.09
2023-04-08T01:34:34.391Z,1002.09
2023-04-08T01:34:44.659Z,1002.09
2023-04-08T01:34:54.927Z,1002.09
2023-04-08T01:35:05.206Z,1002.09
2023-04-08T01:35:15.479Z,1002.09
2023-04-08T01:35:25.786Z,1002.08
2023-04-08T01:35:36.085Z,1002.09
2023-04-08T01:35:46.416Z,1002.09
2023-04-08T01:35:56.730Z,1002.09
2023-04-08T01:36:06.994Z,1002.09
2023-04-08T01:36:17.285Z,1002.08
2023-04-08T01:36:27.561Z,1002.08
2023-04-08T01:36:37.825Z,1002.08
2023-04-08T01:36:48.162Z,1002.08
2023-04-08T01:36:58.701Z,1002.08
2023-04-08T01:37:08.729Z,1002.08
2023-04-08T01:37:18.999Z,1002.08
2023-04-08T01:37:29.264Z,1002.08
2023-04-08T01:37:39.531Z,1002.07
2023-04-08T01:37:49.800Z,1002.08
2023-04-08T01:38:00.094Z,1002.08
2023-04-08T01:38:10.334Z,1002.08
2023-04-08T01:38:20.603Z,1002.08
2023-04-08T01:38:30.893Z,1002.08
2023-04-08T01:38:41.139Z,1002.08
2023-04-08T01:38:51.612Z,1002.09
2023-04-08T01:39:01.754Z,1002.09
2023-04-08T01:39:12.020Z,1002.09
2023-04-08T01:39:22.302Z,1002.09
2023-04-08T01:39:32.568Z,1002.09
2023-04-08T01:39:42.841Z,1002.09
2023-04-08T01:39:53.108Z,1002.09
2023-04-08T01:40:03.384Z,1002.09
2023-04-08T01:40:13.646Z,1002.09
2023-04-08T01:40:23.926Z,1002.09
2023-04-08T01:40:34.189Z,1002.09
2023-04-08T01:40:44.456Z,1002.09
2023-04-08T01:40:54.721Z,1002.10
2023-04-08T01:41:04.993Z,1002.10
2023-04-08T01:41:15.277Z,1002.10
2023-04-08T01:41:25.534Z,1002.10
2023-04-08T01:41:35.800Z,1002.10
2023-04-08T01:41:46.070Z,1002.10
2023-04-08T01:41:56.346Z,1002.11
2023-04-08T01:42:06.611Z,1002.11
2023-04-08T01:42:16.878Z,1002.11
2023-04-08T01:42:27.143Z,1002.11
2023-04-08T01:42:37.421Z,1002.11
2023-04-08T01:42:47.682Z,1002.11
2023-04-08T01:42:57.952Z,1002.11
2023-04-08T01:43:08.222Z,1002.11
2023-04-08T01:43:18.498Z,1002.11
2023-04-08T01:43:28.753Z,1002.11
2023-04-08T01:43:39.029Z,1002.11
2023-04-08T01:43:49.293Z,1002.11
2023-04-08T01:43:59.563Z,1002.12
2023-04-08T01:44:09.829Z,1002.12
2023-04-08T01:44:20.130Z,1002.12
2023-04-08T01:44:30.384Z,1002.12
2023-04-08T01:44:40.654Z,1002.12
2023-04-08T01:44:50.955Z,1002.12
2023-04-08T01:45:01.203Z,1002.12
2023-04-08T01:45:11.469Z,1002.12
2023-04-08T01:45:21.736Z,1002.12
2023-04-08T01:45:32.007Z,1002.12
2023-04-08T01:45:42.272Z,1002.12
2023-04-08T01:45:52.554Z,1002.12
2023-04-08T01:46:02.837Z,1002.12
2023-04-08T01:46:13.110Z,1002.12
2023-04-08T01:46:23.452Z,1002.12
2023-04-08T01:46:33.769Z,1002.12
2023-04-08T01:46:44.076Z,1002.12
2023-04-08T01:46:54.367Z,1002.12
2023-04-08T01:47:04.698Z,1002.12
2023-04-08T01:47:14.987Z,1002.12
2023-04-08T01:47:25.287Z,1002.12
2023-04-08T01:47:35.573Z,1002.12
2023-04-08T01:47:45.886Z,1002.12
2023-04-08T01:47:56.169Z,1002.12
2023-04-08T01:48:06.458Z,1002.12
2023-04-08T01:48:16.713Z,1002.12
2023-04-08T01:48:26.986Z,1002.12
2023-04-08T01:48:37.249Z,1002.12
2023-04-08T01:48:47.546Z,1002.12
2023-04-08T01:48:57.788Z,1002.12
2023-04-08T01:49:08.071Z,1002.12
2023-04-08T01:49:18.341Z,1002.12
2023-04-08T01:49:28.614Z,1002.12
2023-04-08T01:49:38.877Z,1002.12
2023-04-08T01:49:49.158Z,1002.12
2023-04-08T01:49:59.413Z,1002.12
2023-04-08T01:50:09.694Z,1002.12
2023-04-08T01:50:19.952Z,1002.12
2023-04-08T01:50:30.221Z,1002.12
2023-04-08T01:50:40.487Z,1002.12
2023-04-08T01:50:50.758Z,1002.12
2023-04-08T01:51:01.027Z,1002.12
2023-04-08T01:51:11.298Z,1002.12
2023-04-08T01:51:21.576Z,1002.11
2023-04-08T01:51:31.857Z,1002.12
2023-04-08T01:51:42.116Z,1002.12
2023-04-08T01:51:52.375Z,1002.12
2023-04-08T01:52:02.641Z,1002.12
2023-04-08T01:52:12.923Z,1002.12
2023-04-08T01:52:23.181Z,1002.12
2023-04-08T01:52:33.450Z,1002.12
2023-04-08T01:52:43.714Z,1002.12
2023-04-08T01:52:53.990Z,1002.12
2023-04-08T01:53:04.257Z,1002.12
2023-04-08T01:53:14.522Z,1002.12
2023-04-08T01:53:24.787Z,1002.11
2023-04-08T01:53:35.056Z,1002.12
2023-04-08T01:53:45.331Z,1002.11
2023-04-08T01:53:55.594Z,1002.12
2023-04-08T01:54:05.893Z,1002.12
2023-04-08T01:54:16.149Z,1002.12
2023-04-08T01:54:26.422Z,1002.12
2023-04-08T01:54:36.690Z,1002.12
2023-04-08T01:54:46.974Z,1002.12
2023-04-08T01:54:57.232Z,1002.12
2023-04-08T01:55:07.503Z,1002.12
2023-04-08T01:55:17.767Z,1002.12
2023-04-08T01:55:28.034Z,1002.12
2023-04-08T01:55:38.326Z,1002.13
2023-04-08T01:55:48.575Z,1002.13
2023-04-08T01:55:58.838Z,1002.13
2023-04-08T01:56:09.105Z,1002.13
2023-04-08T01:56:19.375Z,1002.13
2023-04-08T01:56:29.670Z,1002.14
2023-04-08T01:56:39.937Z,1002.14
2023-04-08T01:56:50.198Z,1002.14
2023-04-08T01:57:00.477Z,1002.14
2023-04-08T01:57:10.749Z,1002.14
2023-04-08T01:57:21.038Z,1002.14
2023-04-08T01:57:31.286Z,1002.14
2023-04-08T01:57:41.557Z,1002.14
2023-04-08T01:57:51.827Z,1002.14
2023-04-08T01:58:02.091Z,1002.15
2023-04-08T01:58:12.361Z,1002.15
2023-04-08T01:58:22.641Z,1002.15
2023-04-08T01:58:32.914Z,1002.15
2023-04-08T01:58:43.193Z,1002.15
2023-04-08T01:58:53.488Z,1002.14
2023-04-08T01:59:03.751Z,1002.15
2023-04-08T01:59:14.095Z,1002.15
2023-04-08T01:59:24.356Z,1002.15
2023-04-08T01:59:34.594Z,1002.15
2023-04-08T01:59:44.873Z,1002.15
2023-04-08T01:59:55.180Z,1002.15
2023-04-08T02:00:05.444Z,1002.15
2023-04-08T02:00:15.706Z,1002.15
2023-04-08T02:00:26.001Z,1002.15
2023-04-08T02:00:36.249Z,1002.15
2023-04-08T02:00:46.523Z,1002.15
2023-04-08T02:00:56.806Z,1002.15
2023-04-08T02:01:07.058Z,1002.15
2023-04-08T02:01:17.330Z,1002.16
2023-04-08T02:01:27.633Z,1002.15
2023-04-08T02:01:38.001Z,1002.16
2023-04-08T02:01:48.279Z,1002.16
2023-04-08T02:01:58.668Z,1002.16
2023-04-08T02:02:09.027Z,1002.16
2023-04-08T02:02:19.331Z,1002.15
2023-04-08T02:02:29.658Z,1002.16
2023-04-08T02:02:40.200Z,1002.16
2023-04-08T02:02:50.562Z,1002.16
2023-04-08T02:03:00.977Z,1002.16
2023-04-08T02:03:11.271Z,1002.16
2023-04-08T02:03:21.862Z,1002.17
2023-04-08T02:03:31.925Z,1002.17
2023-04-08T02:03:42.156Z,1002.17
2023-04-08T02:03:52.587Z,1002.17
2023-04-08T02:04:02.848Z,1002.17
2023-04-08T02:04:13.214Z,1002.17
2023-04-08T02:04:23.403Z,1002.17